sensor_id;sensor_type;location;lat;lon;timestamp;temperature;humidity
42907;DHT22;28552;51.146;6.576;2023-04-16T00:00:40;7.80;99.90
42907;DHT22;28552;51.146;6.576;2023-04-16T00:03:40;7.90;99.90
42907;DHT22;28552;51.146;6.576;2023-04-16T00:06:41;7.80;99.90
42907;DHT22;28552;51.146;6.576;2023-04-16T00:09:41;7.80;99.90
42907;DHT22;28552;51.146;6.576;2023-04-16T00:12:42;7.80;99.90
42907;DHT22;28552;51.146;6.576;2023-04-16T00:15:42;7.80;99.90
42907;DHT22;28552;51.146;6.576;2023-04-16T00:18:43;7.80;99.90
42907;DHT22;28552;51.146;6.576;2023-04-16T00:21:44;7.80;99.90
42907;DHT22;28552;51.146;6.576;2023-04-16T00:24:44;7.80;99.90
42907;DHT22;28552;51.146;6.576;2023-04-16T00:27:45;7.80;99.90
42907;DHT22;28552;51.146;6.576;2023-04-16T00:30:45;7.80;99.90
42907;DHT22;28552;51.146;6.576;2023-04-16T00:33:46;7.80;99.90
42907;DHT22;28552;51.146;6.576;2023-04-16T00:36:46;7.80;99.90
42907;DHT22;28552;51.146;6.576;2023-04-16T00:39:47;7.80;99.90
42907;DHT22;28552;51.146;6.576;2023-04-16T00:42:47;7.80;99.90
42907;DHT22;28552;51.146;6.576;2023-04-16T00:45:48;7.90;99.90
42907;DHT22;28552;51.146;6.576;2023-04-16T00:48:50;7.80;99.90
42907;DHT22;28552;51.146;6.576;2023-04-16T00:51:50;7.80;99.90
42907;DHT22;28552;51.146;6.576;2023-04-16T00:54:51;7.80;99.90
42907;DHT22;28552;51.146;6.576;2023-04-16T00:57:53;7.80;99.90
42907;DHT22;28552;51.146;6.576;2023-04-16T01:00:53;7.80;99.90
42907;DHT22;28552;51.146;6.576;2023-04-16T01:03:54;7.80;99.90
42907;DHT22;28552;51.146;6.576;2023-04-16T01:06:55;7.80;99.90
42907;DHT22;28552;51.146;6.576;2023-04-16T01:09:56;7.80;99.90
42907;DHT22;28552;51.146;6.576;2023-04-16T01:12:57;7.80;99.90
42907;DHT22;28552;51.146;6.576;2023-04-16T01:15:57;7.80;99.90
42907;DHT22;28552;51.146;6.576;2023-04-16T01:18:58;7.80;99.90
42907;DHT22;28552;51.146;6.576;2023-04-16T01:21:58;7.80;99.90
42907;DHT22;28552;51.146;6.576;2023-04-16T01:24:59;7.80;99.90
42907;DHT22;28552;51.146;6.576;2023-04-16T01:28:00;7.80;99.90
42907;DHT22;28552;51.146;6.576;2023-04-16T01:31:00;7.90;99.90
42907;DHT22;28552;51.146;6.576;2023-04-16T01:34:01;7.80;99.90
42907;DHT22;28552;51.146;6.576;2023-04-16T01:37:02;7.90;99.90
42907;DHT22;28552;51.146;6.576;2023-04-16T01:40:03;7.90;99.90
42907;DHT22;28552;51.146;6.576;2023-04-16T01:43:04;7.80;99.90
42907;DHT22;28552;51.146;6.576;2023-04-16T01:46:22;7.80;99.90
42907;DHT22;28552;51.146;6.576;2023-04-16T01:49:26;7.80;99.90
42907;DHT22;28552;51.146;6.576;2023-04-16T01:52:26;7.80;99.90
42907;DHT22;28552;51.146;6.576;2023-04-16T01:55:27;7.90;99.90
42907;DHT22;28552;51.146;6.576;2023-04-16T01:58:28;7.90;99.90
42907;DHT22;28552;51.146;6.576;2023-04-16T02:01:29;7.90;99.90
42907;DHT22;28552;51.146;6.576;2023-04-16T02:04:30;7.90;99.90
42907;DHT22;28552;51.146;6.576;2023-04-16T02:07:31;7.90;99.90
42907;DHT22;28552;51.146;6.576;2023-04-16T02:10:32;7.90;99.90
42907;DHT22;28552;51.146;6.576;2023-04-16T02:13:32;7.90;99.90
42907;DHT22;28552;51.146;6.576;2023-04-16T02:16:33;7.90;99.90
42907;DHT22;28552;51.146;6.576;2023-04-16T02:19:33;7.90;99.90
42907;DHT22;28552;51.146;6.576;2023-04-16T02:22:34;7.90;99.90
42907;DHT22;28552;51.146;6.576;2023-04-16T02:25:39;7.90;99.90
42907;DHT22;28552;51.146;6.576;2023-04-16T02:28:40;7.90;99.90
42907;DHT22;28552;51.146;6.576;2023-04-16T02:31:41;7.90;99.90
42907;DHT22;28552;51.146;6.576;2023-04-16T02:34:41;7.90;99.90
42907;DHT22;28552;51.146;6.576;2023-04-16T02:37:42;7.90;99.90
42907;DHT22;28552;51.146;6.576;2023-04-16T02:40:43;7.90;99.90
42907;DHT22;28552;51.146;6.576;2023-04-16T02:43:43;7.90;99.90
42907;DHT22;28552;51.146;6.576;2023-04-16T02:46:44;7.90;99.90
42907;DHT22;28552;51.146;6.576;2023-04-16T02:49:45;7.90;99.90
42907;DHT22;28552;51.146;6.576;2023-04-16T02:52:45;7.90;99.90
42907;DHT22;28552;51.146;6.576;2023-04-16T02:55:50;7.90;99.90
42907;DHT22;28552;51.146;6.576;2023-04-16T02:58:52;7.90;99.90
42907;DHT22;28552;51.146;6.576;2023-04-16T03:01:52;7.90;99.90
42907;DHT22;28552;51.146;6.576;2023-04-16T03:04:53;7.90;99.90
42907;DHT22;28552;51.146;6.576;2023-04-16T03:07:53;7.90;99.90
42907;DHT22;28552;51.146;6.576;2023-04-16T03:10:55;7.90;99.90
42907;DHT22;28552;51.146;6.576;2023-04-16T03:13:56;7.90;99.90
42907;DHT22;28552;51.146;6.576;2023-04-16T03:16:57;7.90;99.90
42907;DHT22;28552;51.146;6.576;2023-04-16T03:19:58;7.90;99.90
42907;DHT22;28552;51.146;6.576;2023-04-16T03:22:58;7.90;99.90
42907;DHT22;28552;51.146;6.576;2023-04-16T03:25:59;7.90;99.90
42907;DHT22;28552;51.146;6.576;2023-04-16T03:28:59;7.90;99.90
42907;DHT22;28552;51.146;6.576;2023-04-16T03:32:01;7.90;99.90
42907;DHT22;28552;51.146;6.576;2023-04-16T03:35:03;7.90;99.90
42907;DHT22;28552;51.146;6.576;2023-04-16T03:38:03;7.90;99.90
42907;DHT22;28552;51.146;6.576;2023-04-16T03:41:04;7.90;99.90
42907;DHT22;28552;51.146;6.576;2023-04-16T03:44:04;7.90;99.90
42907;DHT22;28552;51.146;6.576;2023-04-16T03:47:05;7.90;99.90
42907;DHT22;28552;51.146;6.576;2023-04-16T03:50:06;7.90;99.90
42907;DHT22;28552;51.146;6.576;2023-04-16T03:53:06;7.90;99.90
42907;DHT22;28552;51.146;6.576;2023-04-16T03:56:07;7.90;99.90
42907;DHT22;28552;51.146;6.576;2023-04-16T03:59:08;7.90;99.90
42907;DHT22;28552;51.146;6.576;2023-04-16T04:02:08;7.90;99.90
42907;DHT22;28552;51.146;6.576;2023-04-16T04:05:09;7.90;99.90
42907;DHT22;28552;51.146;6.576;2023-04-16T04:08:10;7.90;99.90
42907;DHT22;28552;51.146;6.576;2023-04-16T04:11:10;7.90;99.90
42907;DHT22;28552;51.146;6.576;2023-04-16T04:14:11;7.90;99.90
42907;DHT22;28552;51.146;6.576;2023-04-16T04:17:11;7.90;99.90
42907;DHT22;28552;51.146;6.576;2023-04-16T04:20:12;7.90;99.90
42907;DHT22;28552;51.146;6.576;2023-04-16T04:23:12;8.00;99.90
42907;DHT22;28552;51.146;6.576;2023-04-16T04:26:13;8.00;99.90
42907;DHT22;28552;51.146;6.576;2023-04-16T04:29:13;8.00;99.90
42907;DHT22;28552;51.146;6.576;2023-04-16T04:32:14;8.00;99.90
42907;DHT22;28552;51.146;6.576;2023-04-16T04:35:15;8.00;99.90
42907;DHT22;28552;51.146;6.576;2023-04-16T04:38:15;8.00;99.90
42907;DHT22;28552;51.146;6.576;2023-04-16T04:41:19;8.00;99.90
42907;DHT22;28552;51.146;6.576;2023-04-16T04:44:20;8.00;99.90
42907;DHT22;28552;51.146;6.576;2023-04-16T04:47:21;8.00;99.90
42907;DHT22;28552;51.146;6.576;2023-04-16T04:50:21;8.00;99.90
42907;DHT22;28552;51.146;6.576;2023-04-16T04:53:22;7.90;99.90
42907;DHT22;28552;51.146;6.576;2023-04-16T04:56:22;8.00;99.90
42907;DHT22;28552;51.146;6.576;2023-04-16T04:59:23;8.00;99.90
42907;DHT22;28552;51.146;6.576;2023-04-16T05:02:24;8.00;99.90
42907;DHT22;28552;51.146;6.576;2023-04-16T05:05:25;8.10;99.90
42907;DHT22;28552;51.146;6.576;2023-04-16T05:08:25;8.10;99.90
42907;DHT22;28552;51.146;6.576;2023-04-16T05:11:26;8.10;99.90
42907;DHT22;28552;51.146;6.576;2023-04-16T05:14:26;8.10;99.90
42907;DHT22;28552;51.146;6.576;2023-04-16T05:17:27;8.10;99.90
42907;DHT22;28552;51.146;6.576;2023-04-16T05:20:27;8.10;99.90
42907;DHT22;28552;51.146;6.576;2023-04-16T05:23:28;8.10;99.90
42907;DHT22;28552;51.146;6.576;2023-04-16T05:26:28;8.10;99.90
42907;DHT22;28552;51.146;6.576;2023-04-16T05:29:29;8.20;99.90
42907;DHT22;28552;51.146;6.576;2023-04-16T05:32:29;8.20;99.90
42907;DHT22;28552;51.146;6.576;2023-04-16T05:35:30;8.20;99.90
42907;DHT22;28552;51.146;6.576;2023-04-16T05:38:30;8.20;99.90
42907;DHT22;28552;51.146;6.576;2023-04-16T05:41:31;8.20;99.90
42907;DHT22;28552;51.146;6.576;2023-04-16T05:44:32;8.20;99.90
42907;DHT22;28552;51.146;6.576;2023-04-16T05:47:32;8.20;99.90
42907;DHT22;28552;51.146;6.576;2023-04-16T05:50:33;8.20;99.90
42907;DHT22;28552;51.146;6.576;2023-04-16T05:53:34;8.20;99.90
42907;DHT22;28552;51.146;6.576;2023-04-16T05:56:34;8.30;99.90
42907;DHT22;28552;51.146;6.576;2023-04-16T05:59:35;8.30;99.90
42907;DHT22;28552;51.146;6.576;2023-04-16T06:02:35;8.30;99.90
42907;DHT22;28552;51.146;6.576;2023-04-16T06:05:36;8.30;99.90
42907;DHT22;28552;51.146;6.576;2023-04-16T06:08:36;8.30;99.90
42907;DHT22;28552;51.146;6.576;2023-04-16T06:11:37;8.30;99.90
42907;DHT22;28552;51.146;6.576;2023-04-16T06:14:37;8.30;99.90
42907;DHT22;28552;51.146;6.576;2023-04-16T06:17:38;8.30;99.90
42907;DHT22;28552;51.146;6.576;2023-04-16T06:20:39;8.30;99.90
42907;DHT22;28552;51.146;6.576;2023-04-16T06:23:39;8.30;99.90
42907;DHT22;28552;51.146;6.576;2023-04-16T06:26:40;8.30;99.90
42907;DHT22;28552;51.146;6.576;2023-04-16T06:29:41;8.30;99.90
42907;DHT22;28552;51.146;6.576;2023-04-16T06:32:41;8.30;99.90
42907;DHT22;28552;51.146;6.576;2023-04-16T06:35:42;8.30;99.90
42907;DHT22;28552;51.146;6.576;2023-04-16T06:38:42;8.30;99.90
42907;DHT22;28552;51.146;6.576;2023-04-16T06:41:43;8.30;99.90
42907;DHT22;28552;51.146;6.576;2023-04-16T06:44:43;8.30;99.90
42907;DHT22;28552;51.146;6.576;2023-04-16T06:47:44;8.30;99.90
42907;DHT22;28552;51.146;6.576;2023-04-16T06:50:45;8.30;99.90
42907;DHT22;28552;51.146;6.576;2023-04-16T06:53:45;8.30;99.90
42907;DHT22;28552;51.146;6.576;2023-04-16T06:56:46;8.30;99.90
42907;DHT22;28552;51.146;6.576;2023-04-16T06:59:46;8.30;99.90
42907;DHT22;28552;51.146;6.576;2023-04-16T07:02:47;8.30;99.90
42907;DHT22;28552;51.146;6.576;2023-04-16T07:05:48;8.30;99.90
42907;DHT22;28552;51.146;6.576;2023-04-16T07:08:48;8.40;99.90
42907;DHT22;28552;51.146;6.576;2023-04-16T07:11:49;8.40;99.90
42907;DHT22;28552;51.146;6.576;2023-04-16T07:14:50;8.40;99.90
42907;DHT22;28552;51.146;6.576;2023-04-16T07:17:50;8.40;99.90
42907;DHT22;28552;51.146;6.576;2023-04-16T07:20:51;8.40;99.90
42907;DHT22;28552;51.146;6.576;2023-04-16T07:23:51;8.40;99.90
42907;DHT22;28552;51.146;6.576;2023-04-16T07:26:52;8.40;99.90
42907;DHT22;28552;51.146;6.576;2023-04-16T07:29:52;8.40;99.90
42907;DHT22;28552;51.146;6.576;2023-04-16T07:32:54;8.40;99.90
42907;DHT22;28552;51.146;6.576;2023-04-16T07:35:55;8.40;99.90
42907;DHT22;28552;51.146;6.576;2023-04-16T07:38:55;8.40;99.90
42907;DHT22;28552;51.146;6.576;2023-04-16T07:41:56;8.50;99.90
42907;DHT22;28552;51.146;6.576;2023-04-16T07:44:56;8.50;99.90
42907;DHT22;28552;51.146;6.576;2023-04-16T07:47:57;8.50;99.90
42907;DHT22;28552;51.146;6.576;2023-04-16T07:50:57;8.50;99.90
42907;DHT22;28552;51.146;6.576;2023-04-16T07:53:58;8.60;99.90
42907;DHT22;28552;51.146;6.576;2023-04-16T07:56:58;8.60;99.90
42907;DHT22;28552;51.146;6.576;2023-04-16T07:59:59;8.60;99.90
42907;DHT22;28552;51.146;6.576;2023-04-16T08:03:01;8.70;99.90
42907;DHT22;28552;51.146;6.576;2023-04-16T08:06:02;8.70;99.90
42907;DHT22;28552;51.146;6.576;2023-04-16T08:09:02;8.80;99.90
42907;DHT22;28552;51.146;6.576;2023-04-16T08:12:03;8.80;99.90
42907;DHT22;28552;51.146;6.576;2023-04-16T08:15:04;8.80;99.90
42907;DHT22;28552;51.146;6.576;2023-04-16T08:18:05;8.80;99.90
42907;DHT22;28552;51.146;6.576;2023-04-16T08:21:11;8.90;99.90
42907;DHT22;28552;51.146;6.576;2023-04-16T08:24:12;8.90;99.90
42907;DHT22;28552;51.146;6.576;2023-04-16T08:27:12;8.90;99.90
42907;DHT22;28552;51.146;6.576;2023-04-16T08:30:13;9.00;99.90
42907;DHT22;28552;51.146;6.576;2023-04-16T08:33:15;9.00;99.90
42907;DHT22;28552;51.146;6.576;2023-04-16T08:36:16;9.00;99.90
42907;DHT22;28552;51.146;6.576;2023-04-16T08:39:16;9.00;99.90
42907;DHT22;28552;51.146;6.576;2023-04-16T08:42:23;9.10;99.90
42907;DHT22;28552;51.146;6.576;2023-04-16T08:45:26;9.10;99.90
42907;DHT22;28552;51.146;6.576;2023-04-16T08:48:32;9.10;99.90
42907;DHT22;28552;51.146;6.576;2023-04-16T08:51:34;9.20;99.90
42907;DHT22;28552;51.146;6.576;2023-04-16T08:54:45;9.40;99.90
42907;DHT22;28552;51.146;6.576;2023-04-16T08:57:50;9.50;99.90
42907;DHT22;28552;51.146;6.576;2023-04-16T09:00:53;9.70;99.90
42907;DHT22;28552;51.146;6.576;2023-04-16T09:03:54;9.90;99.90
42907;DHT22;28552;51.146;6.576;2023-04-16T09:06:55;10.10;99.90
42907;DHT22;28552;51.146;6.576;2023-04-16T09:09:58;10.20;99.90
42907;DHT22;28552;51.146;6.576;2023-04-16T09:12:59;10.40;99.90
42907;DHT22;28552;51.146;6.576;2023-04-16T09:16:00;10.60;99.90
42907;DHT22;28552;51.146;6.576;2023-04-16T09:19:01;10.80;99.90
42907;DHT22;28552;51.146;6.576;2023-04-16T09:22:02;11.00;99.90
42907;DHT22;28552;51.146;6.576;2023-04-16T09:25:03;11.10;99.90
42907;DHT22;28552;51.146;6.576;2023-04-16T09:28:03;11.10;99.90
42907;DHT22;28552;51.146;6.576;2023-04-16T09:31:20;11.10;99.90
42907;DHT22;28552;51.146;6.576;2023-04-16T09:34:20;11.00;99.90
42907;DHT22;28552;51.146;6.576;2023-04-16T09:37:21;10.80;99.90
42907;DHT22;28552;51.146;6.576;2023-04-16T09:40:24;10.90;99.90
42907;DHT22;28552;51.146;6.576;2023-04-16T09:43:26;11.00;99.90
42907;DHT22;28552;51.146;6.576;2023-04-16T09:46:34;11.20;99.90
42907;DHT22;28552;51.146;6.576;2023-04-16T09:49:40;11.50;99.90
42907;DHT22;28552;51.146;6.576;2023-04-16T09:52:44;11.70;99.90
42907;DHT22;28552;51.146;6.576;2023-04-16T09:55:45;11.80;99.90
42907;DHT22;28552;51.146;6.576;2023-04-16T09:58:45;11.90;99.90
42907;DHT22;28552;51.146;6.576;2023-04-16T10:01:46;11.90;99.90
42907;DHT22;28552;51.146;6.576;2023-04-16T10:04:50;11.90;99.90
42907;DHT22;28552;51.146;6.576;2023-04-16T10:07:50;12.00;99.90
42907;DHT22;28552;51.146;6.576;2023-04-16T10:10:53;12.00;99.90
42907;DHT22;28552;51.146;6.576;2023-04-16T10:13:55;12.10;99.90
42907;DHT22;28552;51.146;6.576;2023-04-16T10:16:55;12.30;99.90
42907;DHT22;28552;51.146;6.576;2023-04-16T10:19:57;12.40;99.90
42907;DHT22;28552;51.146;6.576;2023-04-16T10:22:58;12.40;99.90
42907;DHT22;28552;51.146;6.576;2023-04-16T10:26:00;12.40;99.90
42907;DHT22;28552;51.146;6.576;2023-04-16T10:29:01;12.40;99.90
42907;DHT22;28552;51.146;6.576;2023-04-16T10:32:05;12.50;99.90
42907;DHT22;28552;51.146;6.576;2023-04-16T10:35:05;12.60;99.90
42907;DHT22;28552;51.146;6.576;2023-04-16T10:38:23;12.80;99.90
42907;DHT22;28552;51.146;6.576;2023-04-16T10:41:25;13.00;99.90
42907;DHT22;28552;51.146;6.576;2023-04-16T10:44:30;13.00;99.90
42907;DHT22;28552;51.146;6.576;2023-04-16T10:47:31;13.10;99.90
42907;DHT22;28552;51.146;6.576;2023-04-16T10:50:34;13.10;99.90
42907;DHT22;28552;51.146;6.576;2023-04-16T10:53:36;13.20;99.90
42907;DHT22;28552;51.146;6.576;2023-04-16T10:56:37;13.30;99.90
42907;DHT22;28552;51.146;6.576;2023-04-16T10:59:38;13.40;99.90
42907;DHT22;28552;51.146;6.576;2023-04-16T11:02:41;13.50;99.90
42907;DHT22;28552;51.146;6.576;2023-04-16T11:05:45;13.50;99.90
42907;DHT22;28552;51.146;6.576;2023-04-16T11:08:46;13.50;99.90
42907;DHT22;28552;51.146;6.576;2023-04-16T11:11:47;13.60;99.90
42907;DHT22;28552;51.146;6.576;2023-04-16T11:14:51;13.70;99.90
42907;DHT22;28552;51.146;6.576;2023-04-16T11:17:52;13.80;99.90
42907;DHT22;28552;51.146;6.576;2023-04-16T11:20:52;13.90;99.90
42907;DHT22;28552;51.146;6.576;2023-04-16T11:23:53;13.60;99.90
42907;DHT22;28552;51.146;6.576;2023-04-16T11:26:54;13.40;99.90
42907;DHT22;28552;51.146;6.576;2023-04-16T11:29:57;13.40;99.90
42907;DHT22;28552;51.146;6.576;2023-04-16T11:33:01;13.60;99.90
42907;DHT22;28552;51.146;6.576;2023-04-16T11:36:01;13.80;99.90
42907;DHT22;28552;51.146;6.576;2023-04-16T11:39:02;14.00;99.90
42907;DHT22;28552;51.146;6.576;2023-04-16T11:42:03;14.10;99.90
42907;DHT22;28552;51.146;6.576;2023-04-16T11:45:03;14.20;99.90
42907;DHT22;28552;51.146;6.576;2023-04-16T11:48:04;14.30;99.90
42907;DHT22;28552;51.146;6.576;2023-04-16T11:51:05;14.30;99.90
42907;DHT22;28552;51.146;6.576;2023-04-16T11:54:05;14.10;99.90
42907;DHT22;28552;51.146;6.576;2023-04-16T11:57:07;13.90;99.90
42907;DHT22;28552;51.146;6.576;2023-04-16T12:00:08;13.70;99.90
42907;DHT22;28552;51.146;6.576;2023-04-16T12:03:12;13.50;99.90
42907;DHT22;28552;51.146;6.576;2023-04-16T12:06:13;13.40;99.90
42907;DHT22;28552;51.146;6.576;2023-04-16T12:09:24;13.30;99.90
42907;DHT22;28552;51.146;6.576;2023-04-16T12:12:28;13.40;99.90
42907;DHT22;28552;51.146;6.576;2023-04-16T12:15:50;13.40;99.90
42907;DHT22;28552;51.146;6.576;2023-04-16T12:18:59;13.50;99.90
42907;DHT22;28552;51.146;6.576;2023-04-16T12:22:00;13.40;99.90
42907;DHT22;28552;51.146;6.576;2023-04-16T12:25:10;13.50;99.90
42907;DHT22;28552;51.146;6.576;2023-04-16T12:28:11;13.60;99.90
42907;DHT22;28552;51.146;6.576;2023-04-16T12:31:11;13.90;99.90
42907;DHT22;28552;51.146;6.576;2023-04-16T12:34:12;14.00;99.90
42907;DHT22;28552;51.146;6.576;2023-04-16T12:37:14;14.10;99.90
42907;DHT22;28552;51.146;6.576;2023-04-16T12:40:15;14.10;99.90
42907;DHT22;28552;51.146;6.576;2023-04-16T12:43:15;14.00;99.90
42907;DHT22;28552;51.146;6.576;2023-04-16T12:46:16;13.90;99.90
42907;DHT22;28552;51.146;6.576;2023-04-16T12:49:16;13.80;99.90
42907;DHT22;28552;51.146;6.576;2023-04-16T12:52:17;13.70;99.90
42907;DHT22;28552;51.146;6.576;2023-04-16T12:55:18;13.70;99.90
42907;DHT22;28552;51.146;6.576;2023-04-16T12:58:18;13.80;99.90
42907;DHT22;28552;51.146;6.576;2023-04-16T13:01:19;13.90;99.90
42907;DHT22;28552;51.146;6.576;2023-04-16T13:04:20;14.10;99.90
42907;DHT22;28552;51.146;6.576;2023-04-16T13:07:20;14.40;99.90
42907;DHT22;28552;51.146;6.576;2023-04-16T13:10:21;14.70;99.90
42907;DHT22;28552;51.146;6.576;2023-04-16T13:13:22;15.00;99.90
42907;DHT22;28552;51.146;6.576;2023-04-16T13:16:23;15.30;99.90
42907;DHT22;28552;51.146;6.576;2023-04-16T13:19:23;15.60;99.90
42907;DHT22;28552;51.146;6.576;2023-04-16T13:22:24;15.50;99.90
42907;DHT22;28552;51.146;6.576;2023-04-16T13:25:24;15.30;99.90
42907;DHT22;28552;51.146;6.576;2023-04-16T13:28:25;15.00;99.90
42907;DHT22;28552;51.146;6.576;2023-04-16T13:31:26;14.80;99.90
42907;DHT22;28552;51.146;6.576;2023-04-16T13:34:26;14.70;99.90
42907;DHT22;28552;51.146;6.576;2023-04-16T13:37:27;14.80;99.90
42907;DHT22;28552;51.146;6.576;2023-04-16T13:40:27;14.80;99.90
42907;DHT22;28552;51.146;6.576;2023-04-16T13:43:28;14.90;99.90
42907;DHT22;28552;51.146;6.576;2023-04-16T13:46:28;14.90;99.90
42907;DHT22;28552;51.146;6.576;2023-04-16T13:49:29;14.90;99.90
42907;DHT22;28552;51.146;6.576;2023-04-16T13:52:30;14.90;99.90
42907;DHT22;28552;51.146;6.576;2023-04-16T13:55:30;14.90;99.90
42907;DHT22;28552;51.146;6.576;2023-04-16T13:58:31;15.00;99.90
42907;DHT22;28552;51.146;6.576;2023-04-16T14:01:32;15.10;99.90
42907;DHT22;28552;51.146;6.576;2023-04-16T14:04:32;15.30;99.90
42907;DHT22;28552;51.146;6.576;2023-04-16T14:07:34;15.40;99.90
42907;DHT22;28552;51.146;6.576;2023-04-16T14:10:36;15.30;99.90
42907;DHT22;28552;51.146;6.576;2023-04-16T14:13:37;15.20;99.90
42907;DHT22;28552;51.146;6.576;2023-04-16T14:16:37;15.10;99.90
42907;DHT22;28552;51.146;6.576;2023-04-16T14:19:38;15.10;99.90
42907;DHT22;28552;51.146;6.576;2023-04-16T14:22:38;15.00;99.90
42907;DHT22;28552;51.146;6.576;2023-04-16T14:25:39;14.90;99.90
42907;DHT22;28552;51.146;6.576;2023-04-16T14:28:40;14.70;99.90
42907;DHT22;28552;51.146;6.576;2023-04-16T14:31:41;14.60;99.90
42907;DHT22;28552;51.146;6.576;2023-04-16T14:34:41;14.50;99.90
42907;DHT22;28552;51.146;6.576;2023-04-16T14:37:42;14.70;99.90
42907;DHT22;28552;51.146;6.576;2023-04-16T14:40:43;14.90;99.90
42907;DHT22;28552;51.146;6.576;2023-04-16T14:43:43;14.90;99.90
42907;DHT22;28552;51.146;6.576;2023-04-16T14:46:44;14.90;99.90
42907;DHT22;28552;51.146;6.576;2023-04-16T14:49:45;15.00;99.90
42907;DHT22;28552;51.146;6.576;2023-04-16T14:52:46;15.00;99.90
42907;DHT22;28552;51.146;6.576;2023-04-16T14:55:46;14.90;99.90
42907;DHT22;28552;51.146;6.576;2023-04-16T14:58:47;14.90;99.90
42907;DHT22;28552;51.146;6.576;2023-04-16T15:01:47;14.90;99.90
42907;DHT22;28552;51.146;6.576;2023-04-16T15:04:48;14.80;99.90
42907;DHT22;28552;51.146;6.576;2023-04-16T15:07:48;14.50;99.90
42907;DHT22;28552;51.146;6.576;2023-04-16T15:10:50;14.20;99.90
42907;DHT22;28552;51.146;6.576;2023-04-16T15:13:50;14.00;99.90
42907;DHT22;28552;51.146;6.576;2023-04-16T15:16:51;13.90;99.90
42907;DHT22;28552;51.146;6.576;2023-04-16T15:19:52;13.80;99.90
42907;DHT22;28552;51.146;6.576;2023-04-16T15:22:52;13.70;99.90
42907;DHT22;28552;51.146;6.576;2023-04-16T15:25:53;13.60;99.90
42907;DHT22;28552;51.146;6.576;2023-04-16T15:28:53;13.60;99.90
42907;DHT22;28552;51.146;6.576;2023-04-16T15:31:54;13.60;99.90
42907;DHT22;28552;51.146;6.576;2023-04-16T15:34:55;13.70;99.90
42907;DHT22;28552;51.146;6.576;2023-04-16T15:37:55;13.60;99.90
42907;DHT22;28552;51.146;6.576;2023-04-16T15:40:57;13.60;99.90
42907;DHT22;28552;51.146;6.576;2023-04-16T15:43:59;13.60;99.90
42907;DHT22;28552;51.146;6.576;2023-04-16T15:46:59;13.50;99.90
42907;DHT22;28552;51.146;6.576;2023-04-16T15:50:00;13.40;99.90
42907;DHT22;28552;51.146;6.576;2023-04-16T15:53:01;13.20;99.90
42907;DHT22;28552;51.146;6.576;2023-04-16T15:56:02;13.10;99.90
42907;DHT22;28552;51.146;6.576;2023-04-16T15:59:02;12.90;99.90
42907;DHT22;28552;51.146;6.576;2023-04-16T16:02:03;12.80;99.90
42907;DHT22;28552;51.146;6.576;2023-04-16T16:05:04;12.60;99.90
42907;DHT22;28552;51.146;6.576;2023-04-16T16:08:05;12.30;99.90
42907;DHT22;28552;51.146;6.576;2023-04-16T16:11:06;12.00;99.90
42907;DHT22;28552;51.146;6.576;2023-04-16T16:14:06;11.70;99.90
42907;DHT22;28552;51.146;6.576;2023-04-16T16:17:07;11.60;99.90
42907;DHT22;28552;51.146;6.576;2023-04-16T16:20:07;11.40;99.90
42907;DHT22;28552;51.146;6.576;2023-04-16T16:23:09;11.30;99.90
42907;DHT22;28552;51.146;6.576;2023-04-16T16:26:11;11.20;99.90
42907;DHT22;28552;51.146;6.576;2023-04-16T16:29:12;11.20;99.90
42907;DHT22;28552;51.146;6.576;2023-04-16T16:32:13;11.10;99.90
42907;DHT22;28552;51.146;6.576;2023-04-16T16:35:13;11.00;99.90
42907;DHT22;28552;51.146;6.576;2023-04-16T16:38:14;11.00;99.90
42907;DHT22;28552;51.146;6.576;2023-04-16T16:41:14;11.10;99.90
42907;DHT22;28552;51.146;6.576;2023-04-16T16:44:15;11.10;99.90
42907;DHT22;28552;51.146;6.576;2023-04-16T16:47:15;11.10;99.90
42907;DHT22;28552;51.146;6.576;2023-04-16T16:50:16;11.10;99.90
42907;DHT22;28552;51.146;6.576;2023-04-16T16:53:17;11.10;99.90
42907;DHT22;28552;51.146;6.576;2023-04-16T16:56:17;11.00;99.90
42907;DHT22;28552;51.146;6.576;2023-04-16T16:59:18;10.90;99.90
42907;DHT22;28552;51.146;6.576;2023-04-16T17:02:18;10.90;99.90
42907;DHT22;28552;51.146;6.576;2023-04-16T17:05:19;10.80;99.90
42907;DHT22;28552;51.146;6.576;2023-04-16T17:08:20;10.80;99.90
42907;DHT22;28552;51.146;6.576;2023-04-16T17:11:20;10.80;99.90
42907;DHT22;28552;51.146;6.576;2023-04-16T17:14:21;10.80;99.90
42907;DHT22;28552;51.146;6.576;2023-04-16T17:17:21;10.80;99.90
42907;DHT22;28552;51.146;6.576;2023-04-16T17:20:22;10.70;99.90
42907;DHT22;28552;51.146;6.576;2023-04-16T17:23:22;10.70;99.90
42907;DHT22;28552;51.146;6.576;2023-04-16T17:26:23;10.70;99.90
42907;DHT22;28552;51.146;6.576;2023-04-16T17:29:24;10.70;99.90
42907;DHT22;28552;51.146;6.576;2023-04-16T17:32:26;10.70;99.90
42907;DHT22;28552;51.146;6.576;2023-04-16T17:35:27;10.70;99.90
42907;DHT22;28552;51.146;6.576;2023-04-16T17:38:27;10.70;99.90
42907;DHT22;28552;51.146;6.576;2023-04-16T17:41:28;10.70;99.90
42907;DHT22;28552;51.146;6.576;2023-04-16T17:44:28;10.70;99.90
42907;DHT22;28552;51.146;6.576;2023-04-16T17:47:29;10.70;99.90
42907;DHT22;28552;51.146;6.576;2023-04-16T17:50:30;10.70;99.90
42907;DHT22;28552;51.146;6.576;2023-04-16T17:53:30;10.70;99.90
42907;DHT22;28552;51.146;6.576;2023-04-16T17:56:31;10.70;99.90
42907;DHT22;28552;51.146;6.576;2023-04-16T17:59:32;10.80;99.90
42907;DHT22;28552;51.146;6.576;2023-04-16T18:02:32;10.70;99.90
42907;DHT22;28552;51.146;6.576;2023-04-16T18:05:33;10.70;99.90
42907;DHT22;28552;51.146;6.576;2023-04-16T18:08:33;10.60;99.90
42907;DHT22;28552;51.146;6.576;2023-04-16T18:11:36;10.60;99.90
42907;DHT22;28552;51.146;6.576;2023-04-16T18:14:37;10.60;99.90
42907;DHT22;28552;51.146;6.576;2023-04-16T18:17:39;10.50;99.90
42907;DHT22;28552;51.146;6.576;2023-04-16T18:20:40;10.50;99.90
42907;DHT22;28552;51.146;6.576;2023-04-16T18:23:41;10.50;99.90
42907;DHT22;28552;51.146;6.576;2023-04-16T18:26:41;10.50;99.90
42907;DHT22;28552;51.146;6.576;2023-04-16T18:29:41;10.50;99.90
42907;DHT22;28552;51.146;6.576;2023-04-16T18:32:42;10.40;99.90
42907;DHT22;28552;51.146;6.576;2023-04-16T18:35:43;10.40;99.90
42907;DHT22;28552;51.146;6.576;2023-04-16T18:38:43;10.40;99.90
42907;DHT22;28552;51.146;6.576;2023-04-16T18:41:44;10.40;99.90
42907;DHT22;28552;51.146;6.576;2023-04-16T18:44:51;10.30;99.90
42907;DHT22;28552;51.146;6.576;2023-04-16T18:47:52;10.30;99.90
42907;DHT22;28552;51.146;6.576;2023-04-16T18:50:53;10.30;99.90
42907;DHT22;28552;51.146;6.576;2023-04-16T18:53:53;10.30;99.90
42907;DHT22;28552;51.146;6.576;2023-04-16T18:56:54;10.20;99.90
42907;DHT22;28552;51.146;6.576;2023-04-16T18:59:55;10.20;99.90
42907;DHT22;28552;51.146;6.576;2023-04-16T19:02:56;10.20;99.90
42907;DHT22;28552;51.146;6.576;2023-04-16T19:05:56;10.20;99.90
42907;DHT22;28552;51.146;6.576;2023-04-16T19:08:57;10.20;99.90
42907;DHT22;28552;51.146;6.576;2023-04-16T19:11:57;10.10;99.90